Pagina principale
METAR-TAF:

METAR-TAF

Aeroporti :

Aeroporto militare

Landivisiau, Francia

latitudine: 48-31N, longitudine: 004-09W, altezza: 106 m

Osservazione

Il bollettino è stato emesso 16 minuti fa, alle 19:00 UTC
Vento 15 kt da ovest/sud-ovest
Temperature 8°C
Umidità 76%
Pressione 1009 hPa
Visibilità 10 km o più
nessuna nube inferiore a 1500 m e nessun cumulonembo

METAR: LFRJ 161900Z AUTO 25015KT CAVOK 08/04 Q1009

Ora: 20:16 (19:16 UTC)


TAF: mancante

Osservazioni e previsioni meteorologiche di più di 4000 aeroporti (messaggi METAR e TAF).

Le stazioni disponibili sono rappresentate dai dischi gialli e rossi sulla carta.

Puntare il mouse per vedere il nome della stazione.

Clicca sopra per visualizzare le osservazioni e previsioni meteorologiche.

Per cambiare la mappa : fare clic sui pulsanti verdi con una croce nera per ingrandire, il pulsante verde con un trattino per diminuire, o sulla freccia verde per le mappe adiacenti.


METAR-TAF: